Terminal Aerodrome Forecast
Issued by NWS Knoxville/Tri Cities, TN

Current Version | Previous Version | Text Only | Print | Product List | Glossary On
Versions: 1 2 3 4 5 6 7 8 9 10 11 12 13 14 15 16 17 18 19 20 21 22 23 24 25 26 27 28 29
000
FTUS44 KMRX 300531
TAFTYS
TAF
KTYS 300531Z 3006/3106 20012KT P6SM VCSH BKN050
     FM300800 23013G20KT 6SM -SHRA BR SCT020 OVC035
      TEMPO 3008/3010 4SM -SHRA BR SCT015 OVC030
     FM301300 27011KT P6SM BKN025
     FM301600 29008KT P6SM SKC
     FM310000 VRB03KT P6SM SKC=

USA.gov is the U.S. government's official web portal to all federal, state and local government web resources and services.